sensor_id;sensor_type;location;lat;lon;timestamp;P1;durP1;ratioP1;P2;durP2;ratioP2
47529;SDS011;33272;51.922;7.730;2023-03-01T00:01:07;9.47;;;7.73;;
47529;SDS011;33272;51.922;7.730;2023-03-01T00:03:36;10.10;;;7.80;;
47529;SDS011;33272;51.922;7.730;2023-03-01T00:06:05;9.93;;;7.83;;
47529;SDS011;33272;51.922;7.730;2023-03-01T00:08:32;11.50;;;8.27;;
47529;SDS011;33272;51.922;7.730;2023-03-01T00:11:02;9.63;;;8.50;;
47529;SDS011;33272;51.922;7.730;2023-03-01T00:13:30;10.53;;;7.63;;
47529;SDS011;33272;51.922;7.730;2023-03-01T00:15:58;9.93;;;8.30;;
47529;SDS011;33272;51.922;7.730;2023-03-01T00:18:26;8.57;;;7.63;;
47529;SDS011;33272;51.922;7.730;2023-03-01T00:20:54;11.20;;;8.10;;
47529;SDS011;33272;51.922;7.730;2023-03-01T00:23:22;10.27;;;7.87;;
47529;SDS011;33272;51.922;7.730;2023-03-01T00:25:50;11.53;;;8.13;;
47529;SDS011;33272;51.922;7.730;2023-03-01T00:28:17;9.17;;;7.13;;
47529;SDS011;33272;51.922;7.730;2023-03-01T00:30:44;11.63;;;8.10;;
47529;SDS011;33272;51.922;7.730;2023-03-01T00:33:12;10.00;;;7.73;;
47529;SDS011;33272;51.922;7.730;2023-03-01T00:35:40;10.50;;;7.70;;
47529;SDS011;33272;51.922;7.730;2023-03-01T00:38:07;10.47;;;8.50;;
47529;SDS011;33272;51.922;7.730;2023-03-01T00:40:34;10.13;;;7.83;;
47529;SDS011;33272;51.922;7.730;2023-03-01T00:43:03;10.43;;;7.33;;
47529;SDS011;33272;51.922;7.730;2023-03-01T00:45:31;10.63;;;7.77;;
47529;SDS011;33272;51.922;7.730;2023-03-01T00:47:59;13.67;;;8.30;;
47529;SDS011;33272;51.922;7.730;2023-03-01T00:50:26;11.50;;;8.23;;
47529;SDS011;33272;51.922;7.730;2023-03-01T00:52:55;11.07;;;7.60;;
47529;SDS011;33272;51.922;7.730;2023-03-01T00:55:22;10.97;;;7.30;;
47529;SDS011;33272;51.922;7.730;2023-03-01T00:57:50;9.40;;;7.27;;
47529;SDS011;33272;51.922;7.730;2023-03-01T01:00:17;10.33;;;8.37;;
47529;SDS011;33272;51.922;7.730;2023-03-01T01:02:45;9.23;;;7.10;;
47529;SDS011;33272;51.922;7.730;2023-03-01T01:05:12;12.10;;;8.20;;
47529;SDS011;33272;51.922;7.730;2023-03-01T01:07:40;16.03;;;9.93;;
47529;SDS011;33272;51.922;7.730;2023-03-01T01:10:09;12.80;;;8.40;;
47529;SDS011;33272;51.922;7.730;2023-03-01T01:12:42;11.00;;;8.47;;
47529;SDS011;33272;51.922;7.730;2023-03-01T01:15:10;11.23;;;7.67;;
47529;SDS011;33272;51.922;7.730;2023-03-01T01:17:39;12.33;;;8.00;;
47529;SDS011;33272;51.922;7.730;2023-03-01T01:20:06;9.00;;;7.13;;
47529;SDS011;33272;51.922;7.730;2023-03-01T01:22:35;10.27;;;6.73;;
47529;SDS011;33272;51.922;7.730;2023-03-01T01:25:02;9.93;;;7.30;;
47529;SDS011;33272;51.922;7.730;2023-03-01T01:27:31;12.10;;;7.17;;
47529;SDS011;33272;51.922;7.730;2023-03-01T01:29:58;9.47;;;7.23;;
47529;SDS011;33272;51.922;7.730;2023-03-01T01:32:25;9.23;;;7.17;;
47529;SDS011;33272;51.922;7.730;2023-03-01T01:34:52;8.83;;;6.67;;
47529;SDS011;33272;51.922;7.730;2023-03-01T01:37:19;9.97;;;7.43;;
47529;SDS011;33272;51.922;7.730;2023-03-01T01:39:47;9.77;;;7.23;;
47529;SDS011;33272;51.922;7.730;2023-03-01T01:42:14;9.27;;;6.87;;
47529;SDS011;33272;51.922;7.730;2023-03-01T01:44:46;8.20;;;7.00;;
47529;SDS011;33272;51.922;7.730;2023-03-01T01:47:14;9.30;;;7.20;;
47529;SDS011;33272;51.922;7.730;2023-03-01T01:49:44;10.50;;;7.33;;
47529;SDS011;33272;51.922;7.730;2023-03-01T01:52:16;10.33;;;7.33;;
47529;SDS011;33272;51.922;7.730;2023-03-01T01:54:48;9.70;;;7.27;;
47529;SDS011;33272;51.922;7.730;2023-03-01T01:57:20;8.50;;;7.10;;
47529;SDS011;33272;51.922;7.730;2023-03-01T01:59:56;7.97;;;7.13;;
47529;SDS011;33272;51.922;7.730;2023-03-01T02:02:30;8.53;;;6.67;;
47529;SDS011;33272;51.922;7.730;2023-03-01T02:05:01;9.27;;;6.67;;
47529;SDS011;33272;51.922;7.730;2023-03-01T02:07:36;10.80;;;7.20;;
47529;SDS011;33272;51.922;7.730;2023-03-01T02:10:06;10.60;;;7.87;;
47529;SDS011;33272;51.922;7.730;2023-03-01T02:12:34;8.00;;;6.83;;
47529;SDS011;33272;51.922;7.730;2023-03-01T02:15:05;9.17;;;6.93;;
47529;SDS011;33272;51.922;7.730;2023-03-01T02:17:33;9.33;;;7.60;;
47529;SDS011;33272;51.922;7.730;2023-03-01T02:20:04;12.77;;;7.90;;
47529;SDS011;33272;51.922;7.730;2023-03-01T02:22:43;10.40;;;7.27;;
47529;SDS011;33272;51.922;7.730;2023-03-01T02:25:20;11.97;;;7.57;;
47529;SDS011;33272;51.922;7.730;2023-03-01T02:27:54;10.30;;;7.13;;
47529;SDS011;33272;51.922;7.730;2023-03-01T02:30:29;10.03;;;7.90;;
47529;SDS011;33272;51.922;7.730;2023-03-01T02:32:57;10.30;;;7.87;;
47529;SDS011;33272;51.922;7.730;2023-03-01T02:35:27;8.37;;;7.33;;
47529;SDS011;33272;51.922;7.730;2023-03-01T02:37:58;10.77;;;7.97;;
47529;SDS011;33272;51.922;7.730;2023-03-01T02:40:27;10.57;;;8.03;;
47529;SDS011;33272;51.922;7.730;2023-03-01T02:42:57;10.53;;;7.73;;
47529;SDS011;33272;51.922;7.730;2023-03-01T02:45:25;10.57;;;7.77;;
47529;SDS011;33272;51.922;7.730;2023-03-01T02:47:55;12.67;;;8.00;;
47529;SDS011;33272;51.922;7.730;2023-03-01T02:50:25;9.13;;;7.90;;
47529;SDS011;33272;51.922;7.730;2023-03-01T02:53:21;11.80;;;8.10;;
47529;SDS011;33272;51.922;7.730;2023-03-01T02:55:54;10.50;;;7.47;;
47529;SDS011;33272;51.922;7.730;2023-03-01T02:58:21;9.00;;;7.70;;
47529;SDS011;33272;51.922;7.730;2023-03-01T03:00:50;9.70;;;7.90;;
47529;SDS011;33272;51.922;7.730;2023-03-01T03:03:19;11.07;;;7.53;;
47529;SDS011;33272;51.922;7.730;2023-03-01T03:05:47;10.27;;;7.70;;
47529;SDS011;33272;51.922;7.730;2023-03-01T03:08:15;9.03;;;7.47;;
47529;SDS011;33272;51.922;7.730;2023-03-01T03:10:48;9.23;;;8.13;;
47529;SDS011;33272;51.922;7.730;2023-03-01T03:13:15;11.60;;;8.57;;
47529;SDS011;33272;51.922;7.730;2023-03-01T03:15:44;12.07;;;8.10;;
47529;SDS011;33272;51.922;7.730;2023-03-01T03:18:13;8.70;;;7.67;;
47529;SDS011;33272;51.922;7.730;2023-03-01T03:20:45;9.87;;;8.10;;
47529;SDS011;33272;51.922;7.730;2023-03-01T03:23:13;11.23;;;7.53;;
47529;SDS011;33272;51.922;7.730;2023-03-01T03:25:40;9.57;;;7.47;;
47529;SDS011;33272;51.922;7.730;2023-03-01T03:28:07;11.43;;;8.30;;
47529;SDS011;33272;51.922;7.730;2023-03-01T03:30:35;9.83;;;7.67;;
47529;SDS011;33272;51.922;7.730;2023-03-01T03:33:05;12.20;;;7.97;;
47529;SDS011;33272;51.922;7.730;2023-03-01T03:35:33;8.47;;;6.97;;
47529;SDS011;33272;51.922;7.730;2023-03-01T03:38:09;11.40;;;8.13;;
47529;SDS011;33272;51.922;7.730;2023-03-01T03:40:42;11.67;;;7.43;;
47529;SDS011;33272;51.922;7.730;2023-03-01T03:43:12;10.07;;;7.97;;
47529;SDS011;33272;51.922;7.730;2023-03-01T03:45:43;10.33;;;7.77;;
47529;SDS011;33272;51.922;7.730;2023-03-01T03:48:11;10.17;;;7.33;;
47529;SDS011;33272;51.922;7.730;2023-03-01T03:50:38;9.37;;;7.97;;
47529;SDS011;33272;51.922;7.730;2023-03-01T03:53:10;11.07;;;8.07;;
47529;SDS011;33272;51.922;7.730;2023-03-01T03:55:38;10.57;;;7.67;;
47529;SDS011;33272;51.922;7.730;2023-03-01T03:58:06;10.00;;;7.60;;
47529;SDS011;33272;51.922;7.730;2023-03-01T04:00:36;10.53;;;7.43;;
47529;SDS011;33272;51.922;7.730;2023-03-01T04:03:04;11.70;;;7.10;;
47529;SDS011;33272;51.922;7.730;2023-03-01T04:05:32;19.40;;;8.17;;
47529;SDS011;33272;51.922;7.730;2023-03-01T04:08:00;10.53;;;7.20;;
47529;SDS011;33272;51.922;7.730;2023-03-01T04:10:34;10.10;;;7.93;;
47529;SDS011;33272;51.922;7.730;2023-03-01T04:13:03;10.33;;;7.70;;
47529;SDS011;33272;51.922;7.730;2023-03-01T04:15:31;10.90;;;7.27;;
47529;SDS011;33272;51.922;7.730;2023-03-01T04:17:59;10.60;;;8.20;;
47529;SDS011;33272;51.922;7.730;2023-03-01T04:20:27;11.07;;;8.07;;
47529;SDS011;33272;51.922;7.730;2023-03-01T04:22:57;12.23;;;8.87;;
47529;SDS011;33272;51.922;7.730;2023-03-01T04:25:36;9.73;;;7.57;;
47529;SDS011;33272;51.922;7.730;2023-03-01T04:28:05;10.37;;;8.43;;
47529;SDS011;33272;51.922;7.730;2023-03-01T04:30:32;10.90;;;7.63;;
47529;SDS011;33272;51.922;7.730;2023-03-01T04:33:01;10.63;;;8.07;;
47529;SDS011;33272;51.922;7.730;2023-03-01T04:35:30;9.93;;;7.37;;
47529;SDS011;33272;51.922;7.730;2023-03-01T04:37:57;9.10;;;7.43;;
47529;SDS011;33272;51.922;7.730;2023-03-01T04:40:24;9.67;;;7.83;;
47529;SDS011;33272;51.922;7.730;2023-03-01T04:42:52;9.17;;;7.43;;
47529;SDS011;33272;51.922;7.730;2023-03-01T04:45:20;8.63;;;7.40;;
47529;SDS011;33272;51.922;7.730;2023-03-01T04:47:47;8.97;;;7.50;;
47529;SDS011;33272;51.922;7.730;2023-03-01T04:50:17;11.03;;;8.17;;
47529;SDS011;33272;51.922;7.730;2023-03-01T04:52:46;10.40;;;7.87;;
47529;SDS011;33272;51.922;7.730;2023-03-01T04:55:14;10.17;;;7.73;;
47529;SDS011;33272;51.922;7.730;2023-03-01T04:57:41;10.57;;;8.23;;
47529;SDS011;33272;51.922;7.730;2023-03-01T05:00:11;11.47;;;7.30;;
47529;SDS011;33272;51.922;7.730;2023-03-01T05:02:47;11.93;;;8.00;;
47529;SDS011;33272;51.922;7.730;2023-03-01T05:05:18;10.47;;;7.70;;
47529;SDS011;33272;51.922;7.730;2023-03-01T05:07:50;10.70;;;8.00;;
47529;SDS011;33272;51.922;7.730;2023-03-01T05:10:18;8.63;;;7.37;;
47529;SDS011;33272;51.922;7.730;2023-03-01T05:12:46;10.93;;;7.70;;
47529;SDS011;33272;51.922;7.730;2023-03-01T05:15:14;10.37;;;7.60;;
47529;SDS011;33272;51.922;7.730;2023-03-01T05:17:41;8.67;;;7.40;;
47529;SDS011;33272;51.922;7.730;2023-03-01T05:20:09;9.63;;;7.03;;
47529;SDS011;33272;51.922;7.730;2023-03-01T05:22:37;9.20;;;6.80;;
47529;SDS011;33272;51.922;7.730;2023-03-01T05:25:04;9.27;;;7.07;;
47529;SDS011;33272;51.922;7.730;2023-03-01T05:27:33;9.83;;;7.60;;
47529;SDS011;33272;51.922;7.730;2023-03-01T05:30:00;9.63;;;7.43;;
47529;SDS011;33272;51.922;7.730;2023-03-01T05:32:39;10.23;;;8.00;;
47529;SDS011;33272;51.922;7.730;2023-03-01T05:35:09;10.17;;;7.67;;
47529;SDS011;33272;51.922;7.730;2023-03-01T05:37:39;9.87;;;7.67;;
47529;SDS011;33272;51.922;7.730;2023-03-01T05:40:09;10.57;;;7.43;;
47529;SDS011;33272;51.922;7.730;2023-03-01T05:42:41;11.23;;;8.17;;
47529;SDS011;33272;51.922;7.730;2023-03-01T05:45:10;10.03;;;8.23;;
47529;SDS011;33272;51.922;7.730;2023-03-01T05:47:39;10.73;;;7.50;;
47529;SDS011;33272;51.922;7.730;2023-03-01T05:50:10;10.40;;;8.30;;
47529;SDS011;33272;51.922;7.730;2023-03-01T05:52:39;11.43;;;7.93;;
47529;SDS011;33272;51.922;7.730;2023-03-01T05:55:06;11.10;;;8.17;;
47529;SDS011;33272;51.922;7.730;2023-03-01T05:57:34;11.60;;;8.60;;
47529;SDS011;33272;51.922;7.730;2023-03-01T06:00:01;10.27;;;7.03;;
47529;SDS011;33272;51.922;7.730;2023-03-01T06:02:31;11.37;;;7.83;;
47529;SDS011;33272;51.922;7.730;2023-03-01T06:04:59;12.90;;;7.50;;
47529;SDS011;33272;51.922;7.730;2023-03-01T06:07:27;14.23;;;8.40;;
47529;SDS011;33272;51.922;7.730;2023-03-01T06:09:54;9.43;;;7.27;;
47529;SDS011;33272;51.922;7.730;2023-03-01T06:12:21;11.70;;;8.00;;
47529;SDS011;33272;51.922;7.730;2023-03-01T06:14:48;11.50;;;8.03;;
47529;SDS011;33272;51.922;7.730;2023-03-01T06:17:15;11.50;;;7.87;;
47529;SDS011;33272;51.922;7.730;2023-03-01T06:19:42;12.03;;;7.83;;
47529;SDS011;33272;51.922;7.730;2023-03-01T06:22:10;16.47;;;9.13;;
47529;SDS011;33272;51.922;7.730;2023-03-01T06:24:38;9.97;;;8.07;;
47529;SDS011;33272;51.922;7.730;2023-03-01T06:27:05;10.83;;;7.97;;
47529;SDS011;33272;51.922;7.730;2023-03-01T06:29:32;12.50;;;8.97;;
47529;SDS011;33272;51.922;7.730;2023-03-01T06:31:59;10.80;;;8.27;;
47529;SDS011;33272;51.922;7.730;2023-03-01T06:34:26;14.10;;;10.03;;
47529;SDS011;33272;51.922;7.730;2023-03-01T06:36:53;19.37;;;12.57;;
47529;SDS011;33272;51.922;7.730;2023-03-01T06:39:21;24.57;;;15.43;;
47529;SDS011;33272;51.922;7.730;2023-03-01T06:41:48;42.20;;;25.07;;
47529;SDS011;33272;51.922;7.730;2023-03-01T06:44:15;42.37;;;23.20;;
47529;SDS011;33272;51.922;7.730;2023-03-01T06:46:42;30.73;;;19.23;;
47529;SDS011;33272;51.922;7.730;2023-03-01T06:49:09;24.03;;;14.63;;
47529;SDS011;33272;51.922;7.730;2023-03-01T06:51:36;17.53;;;12.37;;
47529;SDS011;33272;51.922;7.730;2023-03-01T06:54:03;16.90;;;10.70;;
47529;SDS011;33272;51.922;7.730;2023-03-01T06:56:32;14.07;;;10.57;;
47529;SDS011;33272;51.922;7.730;2023-03-01T06:58:59;14.63;;;9.40;;
47529;SDS011;33272;51.922;7.730;2023-03-01T07:01:27;15.57;;;9.77;;
47529;SDS011;33272;51.922;7.730;2023-03-01T07:03:54;13.30;;;9.90;;
47529;SDS011;33272;51.922;7.730;2023-03-01T07:06:22;17.90;;;11.63;;
47529;SDS011;33272;51.922;7.730;2023-03-01T07:08:56;18.37;;;12.37;;
47529;SDS011;33272;51.922;7.730;2023-03-01T07:11:23;18.37;;;13.53;;
47529;SDS011;33272;51.922;7.730;2023-03-01T07:13:52;17.97;;;11.43;;
47529;SDS011;33272;51.922;7.730;2023-03-01T07:16:20;16.87;;;12.17;;
47529;SDS011;33272;51.922;7.730;2023-03-01T07:18:47;17.20;;;12.07;;
47529;SDS011;33272;51.922;7.730;2023-03-01T07:21:14;18.53;;;13.70;;
47529;SDS011;33272;51.922;7.730;2023-03-01T07:23:41;19.10;;;13.43;;
47529;SDS011;33272;51.922;7.730;2023-03-01T07:26:08;11.83;;;9.60;;
47529;SDS011;33272;51.922;7.730;2023-03-01T07:28:35;14.40;;;10.37;;
47529;SDS011;33272;51.922;7.730;2023-03-01T07:31:05;13.90;;;9.60;;
47529;SDS011;33272;51.922;7.730;2023-03-01T07:33:32;13.43;;;9.40;;
47529;SDS011;33272;51.922;7.730;2023-03-01T07:36:00;12.27;;;9.63;;
47529;SDS011;33272;51.922;7.730;2023-03-01T07:38:29;13.90;;;9.47;;
47529;SDS011;33272;51.922;7.730;2023-03-01T07:40:57;12.30;;;8.77;;
47529;SDS011;33272;51.922;7.730;2023-03-01T07:43:27;9.50;;;7.77;;
47529;SDS011;33272;51.922;7.730;2023-03-01T07:45:54;10.60;;;7.90;;
47529;SDS011;33272;51.922;7.730;2023-03-01T07:48:25;11.47;;;8.03;;
47529;SDS011;33272;51.922;7.730;2023-03-01T07:50:53;11.07;;;7.67;;
47529;SDS011;33272;51.922;7.730;2023-03-01T07:53:19;9.13;;;7.20;;
47529;SDS011;33272;51.922;7.730;2023-03-01T07:55:46;10.67;;;7.23;;
47529;SDS011;33272;51.922;7.730;2023-03-01T07:58:13;9.63;;;6.80;;
47529;SDS011;33272;51.922;7.730;2023-03-01T08:00:40;8.13;;;6.43;;
47529;SDS011;33272;51.922;7.730;2023-03-01T08:03:07;11.33;;;7.33;;
47529;SDS011;33272;51.922;7.730;2023-03-01T08:05:36;10.00;;;6.87;;
47529;SDS011;33272;51.922;7.730;2023-03-01T08:08:03;9.00;;;6.23;;
47529;SDS011;33272;51.922;7.730;2023-03-01T08:10:31;11.57;;;6.77;;
47529;SDS011;33272;51.922;7.730;2023-03-01T08:12:58;9.37;;;6.73;;
47529;SDS011;33272;51.922;7.730;2023-03-01T08:15:25;11.50;;;7.00;;
47529;SDS011;33272;51.922;7.730;2023-03-01T08:17:53;8.63;;;6.43;;
47529;SDS011;33272;51.922;7.730;2023-03-01T08:20:20;8.80;;;6.10;;
47529;SDS011;33272;51.922;7.730;2023-03-01T08:22:48;9.40;;;6.97;;
47529;SDS011;33272;51.922;7.730;2023-03-01T08:25:15;10.40;;;6.73;;
47529;SDS011;33272;51.922;7.730;2023-03-01T08:27:42;10.00;;;6.67;;
47529;SDS011;33272;51.922;7.730;2023-03-01T08:30:10;9.43;;;6.43;;
47529;SDS011;33272;51.922;7.730;2023-03-01T08:32:38;9.03;;;6.80;;
47529;SDS011;33272;51.922;7.730;2023-03-01T08:35:06;8.13;;;6.60;;
47529;SDS011;33272;51.922;7.730;2023-03-01T08:37:33;9.13;;;7.00;;
47529;SDS011;33272;51.922;7.730;2023-03-01T08:40:02;8.93;;;7.13;;
47529;SDS011;33272;51.922;7.730;2023-03-01T08:42:32;8.23;;;6.60;;
47529;SDS011;33272;51.922;7.730;2023-03-01T08:44:59;8.10;;;6.80;;
47529;SDS011;33272;51.922;7.730;2023-03-01T08:47:26;8.30;;;6.00;;
47529;SDS011;33272;51.922;7.730;2023-03-01T08:49:53;9.60;;;6.33;;
47529;SDS011;33272;51.922;7.730;2023-03-01T08:52:20;7.87;;;5.57;;
47529;SDS011;33272;51.922;7.730;2023-03-01T08:54:47;9.17;;;6.83;;
47529;SDS011;33272;51.922;7.730;2023-03-01T08:57:16;8.37;;;5.97;;
47529;SDS011;33272;51.922;7.730;2023-03-01T08:59:43;8.03;;;6.47;;
47529;SDS011;33272;51.922;7.730;2023-03-01T09:02:11;9.27;;;6.97;;
47529;SDS011;33272;51.922;7.730;2023-03-01T09:04:40;9.03;;;6.80;;
47529;SDS011;33272;51.922;7.730;2023-03-01T09:07:08;9.03;;;7.07;;
47529;SDS011;33272;51.922;7.730;2023-03-01T09:09:36;8.87;;;6.57;;
47529;SDS011;33272;51.922;7.730;2023-03-01T09:12:03;8.80;;;6.80;;
47529;SDS011;33272;51.922;7.730;2023-03-01T09:14:32;7.73;;;6.13;;
47529;SDS011;33272;51.922;7.730;2023-03-01T09:16:59;9.20;;;6.33;;
47529;SDS011;33272;51.922;7.730;2023-03-01T09:19:28;10.63;;;7.13;;
47529;SDS011;33272;51.922;7.730;2023-03-01T09:21:55;8.33;;;6.53;;
47529;SDS011;33272;51.922;7.730;2023-03-01T09:24:24;8.60;;;6.37;;
47529;SDS011;33272;51.922;7.730;2023-03-01T09:26:54;8.60;;;5.77;;
47529;SDS011;33272;51.922;7.730;2023-03-01T09:29:22;8.50;;;6.23;;
47529;SDS011;33272;51.922;7.730;2023-03-01T09:31:52;8.83;;;6.73;;
47529;SDS011;33272;51.922;7.730;2023-03-01T09:34:20;9.03;;;6.87;;
47529;SDS011;33272;51.922;7.730;2023-03-01T09:36:48;6.90;;;5.50;;
47529;SDS011;33272;51.922;7.730;2023-03-01T09:39:16;7.30;;;5.73;;
47529;SDS011;33272;51.922;7.730;2023-03-01T09:41:45;8.20;;;6.13;;
47529;SDS011;33272;51.922;7.730;2023-03-01T09:44:18;7.30;;;5.30;;
47529;SDS011;33272;51.922;7.730;2023-03-01T09:46:55;8.43;;;6.37;;
47529;SDS011;33272;51.922;7.730;2023-03-01T09:49:24;9.03;;;6.77;;
47529;SDS011;33272;51.922;7.730;2023-03-01T09:51:54;7.07;;;6.20;;
47529;SDS011;33272;51.922;7.730;2023-03-01T09:54:26;7.80;;;6.10;;
47529;SDS011;33272;51.922;7.730;2023-03-01T09:56:59;7.63;;;6.10;;
47529;SDS011;33272;51.922;7.730;2023-03-01T09:59:36;6.97;;;5.70;;
47529;SDS011;33272;51.922;7.730;2023-03-01T10:02:21;7.90;;;5.90;;
47529;SDS011;33272;51.922;7.730;2023-03-01T10:04:57;7.70;;;6.20;;
47529;SDS011;33272;51.922;7.730;2023-03-01T10:07:40;9.30;;;6.53;;
47529;SDS011;33272;51.922;7.730;2023-03-01T10:10:21;8.67;;;6.23;;
47529;SDS011;33272;51.922;7.730;2023-03-01T10:12:53;8.50;;;6.77;;
47529;SDS011;33272;51.922;7.730;2023-03-01T10:15:24;9.73;;;6.70;;
47529;SDS011;33272;51.922;7.730;2023-03-01T10:18:01;7.83;;;6.87;;
47529;SDS011;33272;51.922;7.730;2023-03-01T10:20:33;8.37;;;6.63;;
47529;SDS011;33272;51.922;7.730;2023-03-01T10:23:09;9.27;;;6.63;;
47529;SDS011;33272;51.922;7.730;2023-03-01T10:25:56;8.07;;;6.60;;
47529;SDS011;33272;51.922;7.730;2023-03-01T10:28:40;7.87;;;6.13;;
47529;SDS011;33272;51.922;7.730;2023-03-01T10:31:20;9.40;;;6.87;;
47529;SDS011;33272;51.922;7.730;2023-03-01T10:33:55;8.63;;;6.93;;
47529;SDS011;33272;51.922;7.730;2023-03-01T10:36:23;9.80;;;7.33;;
47529;SDS011;33272;51.922;7.730;2023-03-01T10:38:51;7.60;;;6.73;;
47529;SDS011;33272;51.922;7.730;2023-03-01T10:41:22;8.70;;;6.90;;
47529;SDS011;33272;51.922;7.730;2023-03-01T10:43:52;8.50;;;7.13;;
47529;SDS011;33272;51.922;7.730;2023-03-01T10:46:25;9.73;;;8.17;;
47529;SDS011;33272;51.922;7.730;2023-03-01T10:49:12;7.97;;;6.60;;
47529;SDS011;33272;51.922;7.730;2023-03-01T10:51:43;7.87;;;6.77;;
47529;SDS011;33272;51.922;7.730;2023-03-01T10:54:16;9.03;;;7.13;;
47529;SDS011;33272;51.922;7.730;2023-03-01T10:56:54;8.30;;;6.63;;
47529;SDS011;33272;51.922;7.730;2023-03-01T10:59:28;8.57;;;6.40;;
47529;SDS011;33272;51.922;7.730;2023-03-01T11:02:04;7.93;;;6.57;;
47529;SDS011;33272;51.922;7.730;2023-03-01T11:05:00;10.80;;;7.57;;
47529;SDS011;33272;51.922;7.730;2023-03-01T11:07:46;9.20;;;6.90;;
47529;SDS011;33272;51.922;7.730;2023-03-01T11:10:17;8.90;;;6.83;;
47529;SDS011;33272;51.922;7.730;2023-03-01T11:12:45;8.50;;;6.40;;
47529;SDS011;33272;51.922;7.730;2023-03-01T11:15:20;9.77;;;7.20;;
47529;SDS011;33272;51.922;7.730;2023-03-01T11:17:50;7.60;;;6.33;;
47529;SDS011;33272;51.922;7.730;2023-03-01T11:20:23;8.63;;;7.13;;
47529;SDS011;33272;51.922;7.730;2023-03-01T11:22:56;8.43;;;6.77;;
47529;SDS011;33272;51.922;7.730;2023-03-01T11:25:28;8.27;;;6.60;;
47529;SDS011;33272;51.922;7.730;2023-03-01T11:28:02;7.33;;;6.60;;
47529;SDS011;33272;51.922;7.730;2023-03-01T11:30:32;10.67;;;6.97;;
47529;SDS011;33272;51.922;7.730;2023-03-01T11:33:08;8.70;;;6.93;;
47529;SDS011;33272;51.922;7.730;2023-03-01T11:35:47;8.17;;;6.70;;
47529;SDS011;33272;51.922;7.730;2023-03-01T11:38:22;9.10;;;7.07;;
47529;SDS011;33272;51.922;7.730;2023-03-01T11:40:52;9.93;;;7.47;;
47529;SDS011;33272;51.922;7.730;2023-03-01T11:43:33;7.63;;;6.83;;
47529;SDS011;33272;51.922;7.730;2023-03-01T11:46:27;9.47;;;7.00;;
47529;SDS011;33272;51.922;7.730;2023-03-01T11:49:24;13.03;;;7.37;;
47529;SDS011;33272;51.922;7.730;2023-03-01T11:52:22;7.97;;;6.47;;
47529;SDS011;33272;51.922;7.730;2023-03-01T11:55:07;7.73;;;6.70;;
47529;SDS011;33272;51.922;7.730;2023-03-01T11:58:01;7.30;;;5.70;;
47529;SDS011;33272;51.922;7.730;2023-03-01T12:01:01;7.67;;;6.00;;
47529;SDS011;33272;51.922;7.730;2023-03-01T12:03:47;8.23;;;5.97;;
47529;SDS011;33272;51.922;7.730;2023-03-01T12:06:33;9.37;;;6.13;;
47529;SDS011;33272;51.922;7.730;2023-03-01T12:09:31;6.97;;;6.10;;
47529;SDS011;33272;51.922;7.730;2023-03-01T12:12:32;7.80;;;5.50;;
47529;SDS011;33272;51.922;7.730;2023-03-01T12:15:28;7.67;;;6.43;;
47529;SDS011;33272;51.922;7.730;2023-03-01T12:18:12;8.87;;;5.90;;
47529;SDS011;33272;51.922;7.730;2023-03-01T12:20:59;7.63;;;6.03;;
47529;SDS011;33272;51.922;7.730;2023-03-01T12:24:02;7.57;;;6.23;;
47529;SDS011;33272;51.922;7.730;2023-03-01T12:27:23;6.43;;;5.07;;
47529;SDS011;33272;51.922;7.730;2023-03-01T12:30:35;8.23;;;5.80;;
47529;SDS011;33272;51.922;7.730;2023-03-01T12:33:22;7.57;;;6.03;;
47529;SDS011;33272;51.922;7.730;2023-03-01T12:36:07;8.83;;;6.83;;
47529;SDS011;33272;51.922;7.730;2023-03-01T12:39:23;7.50;;;6.47;;
47529;SDS011;33272;51.922;7.730;2023-03-01T12:42:16;9.17;;;6.50;;
47529;SDS011;33272;51.922;7.730;2023-03-01T12:45:05;9.97;;;6.83;;
47529;SDS011;33272;51.922;7.730;2023-03-01T12:48:09;6.23;;;5.60;;
47529;SDS011;33272;51.922;7.730;2023-03-01T12:50:52;8.60;;;6.43;;
47529;SDS011;33272;51.922;7.730;2023-03-01T12:53:24;8.63;;;6.60;;
47529;SDS011;33272;51.922;7.730;2023-03-01T12:55:58;8.43;;;6.67;;
47529;SDS011;33272;51.922;7.730;2023-03-01T12:58:32;8.00;;;5.73;;
47529;SDS011;33272;51.922;7.730;2023-03-01T13:01:10;7.60;;;5.77;;
47529;SDS011;33272;51.922;7.730;2023-03-01T13:03:52;8.60;;;5.87;;
47529;SDS011;33272;51.922;7.730;2023-03-01T13:06:38;8.27;;;6.50;;
47529;SDS011;33272;51.922;7.730;2023-03-01T13:09:14;7.00;;;5.87;;
47529;SDS011;33272;51.922;7.730;2023-03-01T13:11:51;7.10;;;6.20;;
47529;SDS011;33272;51.922;7.730;2023-03-01T13:14:38;7.97;;;6.23;;
47529;SDS011;33272;51.922;7.730;2023-03-01T13:17:29;7.70;;;5.57;;
47529;SDS011;33272;51.922;7.730;2023-03-01T13:19:59;7.73;;;6.00;;
47529;SDS011;33272;51.922;7.730;2023-03-01T13:22:29;8.33;;;5.70;;
47529;SDS011;33272;51.922;7.730;2023-03-01T13:25:03;7.20;;;5.67;;
47529;SDS011;33272;51.922;7.730;2023-03-01T13:27:43;6.70;;;5.20;;
47529;SDS011;33272;51.922;7.730;2023-03-01T13:36:08;6.03;;;4.83;;
47529;SDS011;33272;51.922;7.730;2023-03-01T13:38:47;7.23;;;5.40;;
47529;SDS011;33272;51.922;7.730;2023-03-01T13:44:20;7.60;;;5.47;;
47529;SDS011;33272;51.922;7.730;2023-03-01T13:46:57;8.07;;;5.30;;
47529;SDS011;33272;51.922;7.730;2023-03-01T13:49:33;5.17;;;4.63;;
47529;SDS011;33272;51.922;7.730;2023-03-01T13:52:24;5.53;;;4.70;;
47529;SDS011;33272;51.922;7.730;2023-03-01T13:55:14;6.63;;;5.03;;
47529;SDS011;33272;51.922;7.730;2023-03-01T13:57:47;6.50;;;4.97;;
47529;SDS011;33272;51.922;7.730;2023-03-01T14:00:30;5.73;;;5.03;;
47529;SDS011;33272;51.922;7.730;2023-03-01T14:03:04;7.73;;;5.93;;
47529;SDS011;33272;51.922;7.730;2023-03-01T14:05:37;7.40;;;5.03;;
47529;SDS011;33272;51.922;7.730;2023-03-01T14:08:14;6.43;;;4.33;;
47529;SDS011;33272;51.922;7.730;2023-03-01T14:13:56;6.03;;;5.07;;
47529;SDS011;33272;51.922;7.730;2023-03-01T14:16:48;7.63;;;5.87;;
47529;SDS011;33272;51.922;7.730;2023-03-01T14:19:27;9.47;;;6.27;;
47529;SDS011;33272;51.922;7.730;2023-03-01T14:21:59;5.47;;;4.80;;
47529;SDS011;33272;51.922;7.730;2023-03-01T14:24:38;7.47;;;5.50;;
47529;SDS011;33272;51.922;7.730;2023-03-01T14:27:12;6.70;;;5.50;;
47529;SDS011;33272;51.922;7.730;2023-03-01T14:29:40;7.93;;;5.67;;
47529;SDS011;33272;51.922;7.730;2023-03-01T14:32:11;5.87;;;4.80;;
47529;SDS011;33272;51.922;7.730;2023-03-01T14:34:48;7.50;;;5.13;;
47529;SDS011;33272;51.922;7.730;2023-03-01T14:37:18;6.93;;;4.50;;
47529;SDS011;33272;51.922;7.730;2023-03-01T14:39:48;6.70;;;5.07;;
47529;SDS011;33272;51.922;7.730;2023-03-01T14:42:17;5.93;;;5.07;;
47529;SDS011;33272;51.922;7.730;2023-03-01T14:44:46;7.77;;;5.03;;
47529;SDS011;33272;51.922;7.730;2023-03-01T14:47:20;6.60;;;5.07;;
47529;SDS011;33272;51.922;7.730;2023-03-01T14:49:57;6.07;;;5.30;;
47529;SDS011;33272;51.922;7.730;2023-03-01T14:52:30;6.87;;;5.00;;
47529;SDS011;33272;51.922;7.730;2023-03-01T14:55:02;5.60;;;4.47;;
47529;SDS011;33272;51.922;7.730;2023-03-01T14:57:33;6.27;;;5.00;;
47529;SDS011;33272;51.922;7.730;2023-03-01T15:00:01;6.63;;;5.43;;
47529;SDS011;33272;51.922;7.730;2023-03-01T15:02:34;7.03;;;5.13;;
47529;SDS011;33272;51.922;7.730;2023-03-01T15:05:06;8.10;;;5.27;;
47529;SDS011;33272;51.922;7.730;2023-03-01T15:07:37;6.77;;;4.70;;
47529;SDS011;33272;51.922;7.730;2023-03-01T15:10:17;7.87;;;5.43;;
47529;SDS011;33272;51.922;7.730;2023-03-01T15:12:48;5.13;;;4.03;;
47529;SDS011;33272;51.922;7.730;2023-03-01T15:18:06;6.13;;;5.00;;
47529;SDS011;33272;51.922;7.730;2023-03-01T15:20:45;6.03;;;5.23;;
47529;SDS011;33272;51.922;7.730;2023-03-01T15:23:18;5.63;;;4.80;;
47529;SDS011;33272;51.922;7.730;2023-03-01T15:25:49;7.87;;;5.20;;